Time;durP1;ratioP1;P1;durP2;ratioP2;P2;SDS_P1;SDS_P2;PMS_P1;PMS_P2;Temp;Humidity;BMP_temperature;BMP_pressure;BME280_temperature;BME280_humidity;BME280_pressure;Samples;Min_cycle;Max_cycle;Signal;HPM_P1;HPM_P2
2022/05/22 00:02:13;;;;;;;3.13;2.50;;;;;;;15.47;67.06;96918.38;5012465;28;20278;-69
2022/05/22 00:04:39;;;;;;;6.57;2.63;;;;;;;15.56;66.80;96913.44;5012550;28;20218;-69
2022/05/22 00:07:08;;;;;;;5.43;2.60;;;;;;;15.58;66.46;96904.22;5008507;28;20541;-69
2022/05/22 00:09:35;;;;;;;5.07;2.63;;;;;;;15.48;67.22;96903.31;5011960;28;20214;-69
2022/05/22 00:12:02;;;;;;;2.80;2.60;;;;;;;15.55;66.96;96909.22;5012642;28;20641;-69
2022/05/22 00:14:27;;;;;;;2.97;2.67;;;;;;;15.54;67.03;96907.63;5012511;28;20667;-69
2022/05/22 00:16:53;;;;;;;2.47;2.27;;;;;;;15.58;66.62;96901.56;5011977;28;20214;-70
2022/05/22 00:19:21;;;;;;;3.80;2.00;;;;;;;15.52;67.14;96902.59;5011830;28;20684;-69
2022/05/22 00:21:47;;;;;;;3.30;2.30;;;;;;;15.28;68.17;96910.03;5012658;28;20179;-69
2022/05/22 00:24:13;;;;;;;6.00;3.70;;;;;;;15.28;68.72;96907.41;5012297;28;20302;-70
2022/05/22 00:26:39;;;;;;;3.83;3.20;;;;;;;15.15;69.31;96914.97;5015592;28;20199;-69
2022/05/22 00:29:05;;;;;;;5.97;3.50;;;;;;;14.98;70.36;96907.19;5015629;28;20574;-69
2022/05/22 00:31:31;;;;;;;4.30;3.90;;;;;;;14.81;71.16;96906.50;5015335;28;20191;-69
2022/05/22 00:33:57;;;;;;;4.83;3.63;;;;;;;14.71;71.46;96893.97;5016348;28;20256;-69
2022/05/22 00:36:22;;;;;;;4.17;3.80;;;;;;;14.65;72.21;96900.28;5016002;28;20222;-70
2022/05/22 00:38:48;;;;;;;5.27;3.97;;;;;;;14.53;72.66;96892.50;5016373;28;20194;-69
2022/05/22 00:41:14;;;;;;;6.20;4.03;;;;;;;14.46;73.60;96889.25;5015650;28;20640;-69
2022/05/22 00:43:51;;;;;;;5.70;4.03;;;;;;;14.46;74.57;96899.81;4998114;28;20214;-69
2022/05/22 00:46:20;;;;;;;4.87;4.27;;;;;;;14.59;74.61;96892.56;5023285;28;20175;-69
2022/05/22 00:48:48;;;;;;;5.80;4.47;;;;;;;14.55;75.37;96890.41;5008615;28;20191;-69
2022/05/22 00:51:18;;;;;;;5.07;4.00;;;;;;;14.29;76.81;96890.34;5014883;28;20191;-69
2022/05/22 00:53:49;;;;;;;4.90;4.10;;;;;;;14.47;76.56;96876.88;5015732;28;20672;-69
2022/05/22 00:56:20;;;;;;;8.10;4.67;;;;;;;14.33;77.64;96883.53;5015755;28;20187;-69
2022/05/22 00:58:50;;;;;;;4.97;4.47;;;;;;;14.21;78.20;96886.31;5015290;28;20214;-69
2022/05/22 01:01:16;;;;;;;4.77;4.13;;;;;;;14.11;79.13;96891.47;5015639;28;20190;-70
2022/05/22 01:03:41;;;;;;;7.40;4.40;;;;;;;14.31;78.22;96889.09;5015331;28;20171;-69
2022/05/22 01:06:09;;;;;;;7.80;4.87;;;;;;;14.27;78.58;96884.53;5003599;28;20228;-69
2022/05/22 01:08:39;;;;;;;7.73;5.00;;;;;;;14.49;77.48;96888.75;5014397;28;20184;-69
2022/05/22 01:11:09;;;;;;;6.93;4.40;;;;;;;14.23;78.60;96889.50;5015414;28;20179;-69
2022/05/22 01:13:42;;;;;;;5.80;4.67;;;;;;;14.36;78.37;96878.59;4997648;28;20539;-69
2022/05/22 01:16:07;;;;;;;6.93;4.93;;;;;;;14.26;78.58;96872.41;5015969;28;20171;-69
2022/05/22 01:18:49;;;;;;;5.40;4.87;;;;;;;14.18;78.97;96873.63;5014463;28;20223;-69
2022/05/22 01:21:18;;;;;;;5.77;4.53;;;;;;;13.97;80.55;96869.19;5015272;28;20194;-69
2022/05/22 01:23:43;;;;;;;8.20;5.40;;;;;;;14.02;80.56;96867.41;5014323;28;20270;-69
2022/05/22 01:26:10;;;;;;;7.00;5.57;;;;;;;13.89;81.34;96864.31;5015414;28;20602;-69
2022/05/22 01:28:35;;;;;;;6.63;6.10;;;;;;;13.76;82.47;96864.72;5015019;28;20270;-69
2022/05/22 01:31:01;;;;;;;5.73;5.23;;;;;;;13.64;83.30;96862.97;4997197;28;20330;-69
2022/05/22 01:33:27;;;;;;;6.67;6.07;;;;;;;13.65;83.11;96869.03;5014968;28;20237;-69
2022/05/22 01:35:52;;;;;;;7.33;6.63;;;;;;;13.66;83.07;96876.69;5014441;28;20234;-70
2022/05/22 01:38:18;;;;;;;8.17;6.67;;;;;;;13.67;83.21;96873.00;5013739;28;20192;-69
2022/05/22 01:40:43;;;;;;;6.53;5.90;;;;;;;13.73;83.29;96874.69;5014904;28;20270;-69
2022/05/22 01:43:09;;;;;;;5.80;5.30;;;;;;;13.82;82.53;96874.28;5015106;28;20594;-69
2022/05/22 01:45:34;;;;;;;5.87;5.20;;;;;;;13.74;82.81;96876.28;5014557;28;20183;-69
2022/05/22 01:48:00;;;;;;;7.50;5.50;;;;;;;13.68;83.22;96873.81;5014538;28;20643;-70
2022/05/22 01:50:25;;;;;;;5.13;4.63;;;;;;;13.63;83.70;96876.38;5014636;28;20198;-69
2022/05/22 01:52:51;;;;;;;4.90;4.50;;;;;;;13.67;83.06;96872.22;5029992;28;20632;-69
2022/05/22 01:55:16;;;;;;;5.17;4.67;;;;;;;13.38;84.86;96866.28;5014510;28;20235;-69
2022/05/22 01:57:42;;;;;;;6.63;4.50;;;;;;;13.46;84.29;96852.72;5014291;28;20202;-69
2022/05/22 02:00:11;;;;;;;5.37;4.73;;;;;;;13.41;84.21;96862.38;5014525;28;20187;-69
2022/05/22 02:02:36;;;;;;;4.20;3.83;;;;;;;13.48;83.36;96871.72;5014592;28;20279;-69
2022/05/22 02:05:02;;;;;;;5.43;4.13;;;;;;;13.42;83.68;96871.88;5009312;28;20988;-69
2022/05/22 02:10:13;;;;;;;5.63;4.17;;;;;;;13.30;83.59;96864.88;5014111;28;20218;-69
2022/05/22 02:12:38;;;;;;;4.53;3.63;;;;;;;13.22;84.05;96857.38;5014308;28;20241;-69
2022/05/22 02:15:05;;;;;;;4.33;3.73;;;;;;;13.25;83.31;96856.13;5013577;28;20210;-69
2022/05/22 02:17:31;;;;;;;8.60;4.00;;;;;;;13.18;83.90;96853.66;5013966;28;20240;-69
2022/05/22 02:19:57;;;;;;;6.70;3.30;;;;;;;13.22;83.56;96849.47;5013974;28;20183;-69
2022/05/22 02:22:23;;;;;;;3.93;3.60;;;;;;;13.12;83.93;96851.97;5014082;28;20368;-68
2022/05/22 02:24:50;;;;;;;3.70;3.40;;;;;;;13.18;83.74;96847.56;5014334;28;20281;-69
2022/05/22 02:27:15;;;;;;;4.57;3.67;;;;;;;13.13;83.76;96832.53;4996333;28;20191;-69
2022/05/22 02:29:41;;;;;;;3.90;3.57;;;;;;;13.26;83.42;96831.41;5013429;28;20671;-68
2022/05/22 02:32:06;;;;;;;4.27;3.77;;;;;;;13.24;83.37;96828.19;5013505;28;20245;-69
2022/05/22 02:34:33;;;;;;;5.57;3.73;;;;;;;13.07;84.18;96825.56;4996134;28;20210;-69
2022/05/22 02:36:59;;;;;;;4.20;3.57;;;;;;;13.14;83.94;96814.91;5013899;28;20187;-68
2022/05/22 02:39:25;;;;;;;3.90;3.60;;;;;;;12.98;84.58;96816.47;5013825;28;20183;-69
2022/05/22 02:41:50;;;;;;;4.90;3.70;;;;;;;12.98;85.09;96816.47;5014024;28;20188;-69
2022/05/22 02:44:15;;;;;;;5.40;3.83;;;;;;;12.78;86.20;96824.03;5013889;28;20183;-69
2022/05/22 02:46:41;;;;;;;4.33;3.90;;;;;;;12.65;87.27;96825.16;5013460;28;20188;-70
2022/05/22 02:49:08;;;;;;;3.90;3.60;;;;;;;12.64;87.26;96823.56;5012172;28;20191;-69
2022/05/22 02:51:34;;;;;;;4.07;3.63;;;;;;;12.75;86.65;96821.91;5013997;28;20230;-69
2022/05/22 02:53:59;;;;;;;4.10;3.37;;;;;;;12.89;85.82;96823.97;5013557;28;20234;-69
2022/05/22 02:56:26;;;;;;;3.73;3.40;;;;;;;13.08;84.76;96827.16;5012970;28;20191;-69
2022/05/22 02:58:52;;;;;;;4.47;4.07;;;;;;;13.00;85.36;96817.03;5013185;28;20183;-69
2022/05/22 03:01:17;;;;;;;4.33;3.93;;;;;;;12.87;85.85;96812.88;5013498;28;20195;-69
2022/05/22 03:03:42;;;;;;;7.07;3.87;;;;;;;12.63;87.68;96813.28;5012873;28;20195;-69
2022/05/22 03:08:52;;;;;;;5.67;3.70;;;;;;;12.68;87.34;96805.47;4987464;28;20186;-69
2022/05/22 03:11:18;;;;;;;4.10;3.80;;;;;;;12.52;87.89;96801.00;5013074;28;20187;-69
2022/05/22 03:13:43;;;;;;;4.63;3.90;;;;;;;12.48;88.37;96801.47;5013170;28;20214;-70
2022/05/22 03:16:08;;;;;;;3.73;3.43;;;;;;;12.43;88.80;96800.59;5012633;28;20241;-69
2022/05/22 03:18:34;;;;;;;4.30;3.90;;;;;;;12.54;88.42;96794.47;5013225;28;20219;-69
2022/05/22 03:20:59;;;;;;;5.17;4.07;;;;;;;12.66;87.65;96797.81;5013477;28;20233;-69
2022/05/22 03:23:25;;;;;;;3.93;3.63;;;;;;;12.72;86.85;96788.19;5012679;28;20644;-69
2022/05/22 03:25:52;;;;;;;4.47;3.90;;;;;;;12.76;86.86;96790.09;5013198;28;20273;-70
2022/05/22 03:28:17;;;;;;;6.23;3.57;;;;;;;12.83;86.43;96780.19;5012422;28;20179;-69
2022/05/22 03:30:44;;;;;;;7.10;4.23;;;;;;;12.76;86.32;96773.53;5012753;28;20186;-69
2022/05/22 03:33:09;;;;;;;4.87;3.83;;;;;;;12.51;87.31;96784.44;5012545;28;20670;-70
2022/05/22 03:35:35;;;;;;;4.53;3.73;;;;;;;12.50;87.26;96790.72;5012782;28;20191;-70
2022/05/22 03:38:04;;;;;;;5.13;3.83;;;;;;;12.47;88.13;96781.50;5013178;28;20183;-69
2022/05/22 03:40:30;;;;;;;8.53;4.00;;;;;;;12.53;87.41;96781.59;5013303;28;20191;-70
2022/05/22 03:42:55;;;;;;;6.83;3.70;;;;;;;12.83;85.73;96785.47;5013304;28;20188;-70
2022/05/22 03:45:21;;;;;;;4.77;3.83;;;;;;;12.92;85.33;96783.25;5012510;28;20218;-70
2022/05/22 03:47:46;;;;;;;4.00;3.60;;;;;;;12.92;85.46;96791.13;5013076;28;20256;-71
2022/05/22 03:50:13;;;;;;;3.93;3.53;;;;;;;13.14;84.50;96792.00;5012246;28;20636;-71
2022/05/22 03:52:43;;;;;;;3.60;3.30;;;;;;;13.10;84.25;96787.41;5013487;28;20195;-70
2022/05/22 03:55:13;;;;;;;3.57;3.27;;;;;;;12.86;85.31;96789.47;5012950;28;20191;-70
2022/05/22 03:57:38;;;;;;;3.83;3.53;;;;;;;13.12;84.02;96793.28;5012227;28;20179;-69
2022/05/22 04:00:07;;;;;;;4.17;3.47;;;;;;;13.21;83.50;96787.34;5014018;28;20249;-70
2022/05/22 04:02:33;;;;;;;3.90;3.50;;;;;;;13.33;82.98;96784.59;5016166;28;20191;-70
2022/05/22 04:04:59;;;;;;;3.27;2.90;;;;;;;13.59;81.07;96785.75;5011861;28;20698;-70
2022/05/22 04:07:24;;;;;;;4.27;2.77;;;;;;;13.73;79.80;96774.56;5016848;28;20707;-70
2022/05/22 04:09:50;;;;;;;3.83;3.10;;;;;;;13.87;79.36;96782.13;5016521;28;20214;-70
2022/05/22 04:12:15;;;;;;;4.77;3.03;;;;;;;13.92;78.84;96772.41;5016368;28;20229;-70
2022/05/22 04:14:41;;;;;;;3.73;3.33;;;;;;;14.22;77.85;96771.91;5016632;28;20211;-70
2022/05/22 04:17:06;;;;;;;2.97;2.63;;;;;;;14.37;76.75;96764.19;5016455;28;20235;-70
2022/05/22 04:19:31;;;;;;;3.97;3.33;;;;;;;14.28;76.94;96759.56;5016192;28;20227;-70
2022/05/22 04:21:58;;;;;;;3.80;3.47;;;;;;;14.26;77.08;96756.41;5015344;28;20574;-70
2022/05/22 04:27:07;;;;;;;7.03;3.27;;;;;;;14.01;78.00;96767.50;5016122;28;20257;-70
2022/05/22 04:29:34;;;;;;;4.43;3.20;;;;;;;14.41;76.72;96756.56;5015757;28;20187;-70
2022/05/22 04:32:00;;;;;;;4.23;3.70;;;;;;;14.42;76.13;96753.69;5015975;28;20195;-70
2022/05/22 04:34:26;;;;;;;5.23;3.20;;;;;;;13.98;77.50;96750.34;5015978;28;20207;-70
2022/05/22 04:36:51;;;;;;;3.70;3.33;;;;;;;14.02;77.29;96745.38;5016522;28;20179;-70
2022/05/22 04:39:17;;;;;;;3.90;3.00;;;;;;;14.34;76.30;96745.38;5016429;28;20649;-70
2022/05/22 04:41:42;;;;;;;7.00;2.83;;;;;;;14.51;75.29;96735.53;5016257;28;20203;-70
2022/05/22 04:44:08;;;;;;;2.83;2.60;;;;;;;14.66;74.68;96745.41;5015940;28;20187;-70
2022/05/22 04:46:34;;;;;;;3.10;2.90;;;;;;;14.54;75.11;96740.31;5015833;28;20196;-70
2022/05/22 04:48:59;;;;;;;3.37;3.03;;;;;;;14.53;75.20;96750.06;5016130;28;20190;-70
2022/05/22 04:51:25;;;;;;;3.43;3.13;;;;;;;14.72;74.56;96747.03;5015971;28;20583;-70
2022/05/22 04:53:50;;;;;;;2.80;2.60;;;;;;;14.90;73.41;96750.06;5015449;28;20198;-70
2022/05/22 04:56:16;;;;;;;4.37;2.80;;;;;;;15.36;71.50;96739.75;4997873;28;20195;-71
2022/05/22 04:58:41;;;;;;;2.60;2.37;;;;;;;16.01;68.63;96744.47;5015822;28;20187;-70
2022/05/22 05:01:09;;;;;;;2.50;2.30;;;;;;;15.93;68.45;96745.00;5015230;28;20244;-70
2022/05/22 05:03:35;;;;;;;2.67;2.40;;;;;;;16.47;66.90;96749.81;5011161;28;20282;-67
2022/05/22 05:06:01;;;;;;;2.57;2.37;;;;;;;16.23;67.39;96747.69;5015653;28;20171;-68
2022/05/22 05:08:29;;;;;;;2.60;2.40;;;;;;;16.60;66.33;96747.47;5015226;28;20617;-68
2022/05/22 05:10:54;;;;;;;3.40;2.63;;;;;;;16.55;66.12;96747.41;5015470;28;20190;-68
2022/05/22 05:13:20;;;;;;;2.97;2.67;;;;;;;16.54;66.40;96745.06;5013958;28;20183;-69
2022/05/22 05:15:56;;;;;;;3.70;2.67;;;;;;;17.02;64.76;96743.69;5030450;28;20179;-68
2022/05/22 05:18:22;;;;;;;3.93;2.93;;;;;;;17.12;63.90;96734.94;5014874;28;20257;-69
2022/05/22 05:20:48;;;;;;;3.33;2.37;;;;;;;16.90;64.94;96732.59;5015348;28;20188;-69
2022/05/22 05:23:14;;;;;;;4.47;2.67;;;;;;;16.97;64.69;96731.28;5015445;28;20191;-69
2022/05/22 05:25:39;;;;;;;4.50;2.30;;;;;;;17.09;63.75;96735.50;5014961;28;20271;-69
2022/05/22 05:28:04;;;;;;;2.88;2.67;;;;;;;17.27;63.16;96737.56;4997178;28;20306;-69
2022/05/22 05:30:30;;;;;;;2.20;2.03;;;;;;;17.46;63.13;96734.03;5014953;28;20183;-68
2022/05/22 05:32:56;;;;;;;4.28;2.70;;;;;;;17.84;61.72;96737.06;5015217;28;20183;-68
2022/05/22 05:35:22;;;;;;;2.65;2.20;;;;;;;18.02;61.33;96738.28;5014944;28;20203;-68
2022/05/22 05:37:47;;;;;;;4.47;2.08;;;;;;;17.72;61.11;96737.38;5014587;28;20183;-69
2022/05/22 05:40:13;;;;;;;2.30;2.10;;;;;;;18.18;59.56;96737.13;5014854;28;20187;-70
2022/05/22 05:42:40;;;;;;;2.95;2.50;;;;;;;18.42;58.98;96726.59;5014548;28;20187;-70
2022/05/22 05:45:07;;;;;;;1.90;1.80;;;;;;;19.02;56.45;96735.91;5014750;28;20229;-69
2022/05/22 05:47:33;;;;;;;3.58;2.17;;;;;;;18.95;57.14;96732.78;5014565;28;20194;-70
2022/05/22 05:49:58;;;;;;;2.33;2.13;;;;;;;19.30;55.84;96739.59;5014718;28;20191;-69
2022/05/22 05:52:23;;;;;;;3.58;2.17;;;;;;;19.42;55.40;96727.50;5014847;28;20179;-69
2022/05/22 05:54:49;;;;;;;4.78;2.38;;;;;;;19.46;55.45;96727.75;5013629;28;20199;-69
2022/05/22 05:57:15;;;;;;;2.80;2.60;;;;;;;19.36;56.21;96733.16;5014082;28;20262;-69
2022/05/22 05:59:41;;;;;;;2.25;2.08;;;;;;;19.49;56.10;96737.84;5014072;28;20892;-69
2022/05/22 06:02:11;;;;;;;2.50;2.17;;;;;;;19.49;56.53;96735.16;5014683;28;20183;-69
2022/05/22 06:04:36;;;;;;;2.42;2.22;;;;;;;19.47;55.86;96730.13;5008143;28;20191;-70
2022/05/22 06:07:02;;;;;;;3.15;2.13;;;;;;;19.71;54.33;96727.44;5014036;28;20642;-70
2022/05/22 06:09:28;;;;;;;2.75;1.80;;;;;;;19.83;53.53;96725.16;5014226;28;20179;-70
2022/05/22 06:11:53;;;;;;;4.88;2.10;;;;;;;19.88;52.95;96729.63;5013806;28;20624;-70
2022/05/22 06:14:18;;;;;;;2.35;2.13;;;;;;;20.22;52.46;96722.22;5013802;28;20210;-70
2022/05/22 06:16:44;;;;;;;2.13;2.03;;;;;;;20.14;52.61;96714.88;5013885;28;20210;-71
2022/05/22 06:19:09;;;;;;;2.15;1.90;;;;;;;20.20;51.82;96721.69;5013594;28;20599;-72
2022/05/22 06:21:35;;;;;;;1.95;1.83;;;;;;;20.28;51.20;96726.34;5029736;28;20267;-71
2022/05/22 06:24:00;;;;;;;2.83;1.80;;;;;;;20.19;52.25;96714.78;5013538;28;20270;-71
2022/05/22 06:26:26;;;;;;;1.83;1.67;;;;;;;20.78;50.60;96712.53;5013858;28;20187;-71
2022/05/22 06:28:52;;;;;;;1.80;1.70;;;;;;;20.66;50.59;96716.47;5013978;28;20180;-72
2022/05/22 06:31:17;;;;;;;3.08;2.03;;;;;;;20.94;49.87;96709.31;5013171;28;20191;-72
2022/05/22 06:33:43;;;;;;;3.58;2.03;;;;;;;20.83;50.76;96712.47;4996109;28;20203;-72
2022/05/22 06:36:10;;;;;;;2.22;1.73;;;;;;;20.91;50.18;96717.09;5014040;28;20186;-73
2022/05/22 06:41:21;;;;;;;2.97;1.80;;;;;;;21.01;49.94;96717.69;5013486;28;20176;-70
2022/05/22 06:43:49;;;;;;;2.10;2.00;;;;;;;21.08;50.72;96715.44;5013647;28;20629;-70
2022/05/22 06:46:16;;;;;;;2.05;1.80;;;;;;;21.17;49.94;96720.13;5013179;28;20658;-69
2022/05/22 06:48:41;;;;;;;3.08;2.20;;;;;;;21.31;49.45;96721.69;4996007;28;20588;-69
2022/05/22 06:51:06;;;;;;;2.15;1.70;;;;;;;21.36;49.03;96713.59;4995725;28;20249;-70
2022/05/22 06:53:32;;;;;;;1.92;1.80;;;;;;;21.30;48.92;96716.66;5012576;28;20235;-69
2022/05/22 06:55:57;;;;;;;3.92;1.70;;;;;;;21.44;49.15;96718.25;5013799;28;20625;-67
2022/05/22 06:58:23;;;;;;;3.10;1.60;;;;;;;21.43;48.58;96715.88;5013317;28;20282;-66
2022/05/22 07:00:52;;;;;;;3.53;1.67;;;;;;;22.12;48.04;96719.25;5013658;28;20551;-68
2022/05/22 07:03:17;;;;;;;2.00;1.60;;;;;;;21.49;48.11;96723.47;5001547;28;20199;-68
2022/05/22 07:05:43;;;;;;;2.28;2.03;;;;;;;21.15;48.66;96731.88;5008653;28;20270;-66
2022/05/22 07:08:09;;;;;;;4.22;1.48;;;;;;;21.67;48.04;96729.00;5013718;28;20212;-66
2022/05/22 07:13:19;;;;;;;2.97;1.42;;;;;;;21.61;46.33;96735.53;5012946;28;20191;-67
2022/05/22 07:15:44;;;;;;;1.70;1.60;;;;;;;21.67;45.75;96731.66;5013586;28;20191;-67
2022/05/22 07:18:09;;;;;;;1.40;1.30;;;;;;;22.08;45.12;96724.38;5012674;28;20230;-67
2022/05/22 07:20:35;;;;;;;1.75;1.15;;;;;;;22.37;44.42;96719.44;5013222;28;20187;-67
2022/05/22 07:23:00;;;;;;;3.42;1.42;;;;;;;22.34;43.95;96720.06;5012895;28;20187;-68
2022/05/22 07:25:26;;;;;;;2.50;1.50;;;;;;;22.53;43.79;96716.41;5013410;28;20617;-67
2022/05/22 07:27:51;;;;;;;2.45;1.80;;;;;;;22.54;43.96;96716.09;5013145;28;20187;-67
2022/05/22 07:30:17;;;;;;;5.35;1.58;;;;;;;22.45;44.30;96719.81;5010956;28;20191;-67
2022/05/22 07:32:43;;;;;;;2.90;1.20;;;;;;;22.30;45.21;96712.94;5012755;28;20189;-68
2022/05/22 07:35:09;;;;;;;3.70;1.90;;;;;;;21.90;46.33;96726.06;5012300;28;20207;-67
2022/05/22 07:37:34;;;;;;;1.40;1.30;;;;;;;22.44;44.55;96711.00;5013487;28;20191;-67
2022/05/22 07:40:00;;;;;;;2.83;1.65;;;;;;;22.51;44.07;96714.03;5012491;28;20194;-69
2022/05/22 07:42:25;;;;;;;1.52;1.42;;;;;;;22.22;44.80;96703.00;5013064;28;20592;-67
2022/05/22 07:44:51;;;;;;;3.08;1.70;;;;;;;22.74;44.48;96701.47;5013243;28;20648;-67
2022/05/22 07:47:16;;;;;;;2.97;1.30;;;;;;;22.55;44.35;96701.66;5013081;28;20632;-67
2022/05/22 07:52:26;;;;;;;2.30;1.80;;;;;;;22.22;44.70;96695.78;5012835;28;20182;-67
2022/05/22 07:54:52;;;;;;;1.75;1.65;;;;;;;22.06;46.09;96696.44;5012381;28;20194;-67
2022/05/22 07:57:17;;;;;;;1.50;1.40;;;;;;;22.59;45.74;96688.47;5012715;28;20245;-67
2022/05/22 07:59:43;;;;;;;2.72;1.55;;;;;;;22.70;44.92;96689.78;5012494;28;20195;-67
2022/05/22 08:02:14;;;;;;;1.65;1.55;;;;;;;22.49;44.24;96692.19;5008172;28;20250;-66
2022/05/22 08:04:41;;;;;;;1.63;1.50;;;;;;;22.22;45.17;96686.97;5012793;28;20270;-66
2022/05/22 08:07:06;;;;;;;2.50;1.65;;;;;;;21.37;46.20;96675.19;5012817;28;20190;-66
2022/05/22 08:09:32;;;;;;;5.28;1.52;;;;;;;21.91;46.21;96676.94;5012537;28;20183;-67
2022/05/22 08:11:58;;;;;;;2.85;1.58;;;;;;;21.00;47.44;96680.69;5012365;28;20556;-67
2022/05/22 08:14:23;;;;;;;1.65;1.40;;;;;;;21.72;46.92;96673.66;5012770;28;20195;-66
2022/05/22 08:16:51;;;;;;;5.00;1.58;;;;;;;22.19;45.72;96672.31;5012602;28;20611;-66
2022/05/22 08:19:18;;;;;;;1.48;1.38;;;;;;;22.23;44.97;96673.31;5012528;28;20330;-66
2022/05/22 08:21:43;;;;;;;1.33;1.23;;;;;;;21.30;46.88;96671.34;5012437;28;20198;-67
2022/05/22 08:24:08;;;;;;;2.55;1.50;;;;;;;21.39;46.44;96667.69;5011550;28;20637;-66
2022/05/22 08:26:34;;;;;;;3.40;1.45;;;;;;;22.13;45.58;96659.41;5012200;28;20209;-66
2022/05/22 08:28:59;;;;;;;1.40;1.30;;;;;;;22.37;44.11;96650.00;5012395;28;20625;-67
2022/05/22 08:31:25;;;;;;;2.28;1.27;;;;;;;22.65;44.44;96660.53;5012286;28;20211;-67
2022/05/22 08:33:50;;;;;;;1.60;1.50;;;;;;;22.47;44.52;96661.50;5012329;28;20608;-67
2022/05/22 08:36:15;;;;;;;1.85;1.40;;;;;;;22.76;44.67;96648.50;5012258;28;20183;-67
2022/05/22 08:38:41;;;;;;;2.53;1.40;;;;;;;22.63;44.55;96639.44;5012315;28;20266;-67
2022/05/22 08:41:21;;;;;;;1.50;1.40;;;;;;;21.81;46.20;96644.38;5008580;28;20234;-67
2022/05/22 08:43:54;;;;;;;1.55;1.35;;;;;;;21.92;45.71;96643.03;5009959;28;20185;-67
2022/05/22 08:46:34;;;;;;;1.95;1.30;;;;;;;22.23;45.38;96635.16;5012368;28;20198;-68
2022/05/22 08:49:04;;;;;;;2.30;1.38;;;;;;;22.89;44.26;96634.25;5015542;28;20179;-67
2022/05/22 08:51:45;;;;;;;3.38;1.50;;;;;;;22.85;42.96;96635.19;5015318;28;20191;-68
2022/05/22 08:54:32;;;;;;;1.80;1.70;;;;;;;22.87;43.36;96632.97;5012518;28;20214;-68
2022/05/22 08:59:48;;;;;;;1.77;1.55;;;;;;;23.23;44.20;96630.91;5009178;28;20195;-69
2022/05/22 09:02:16;;;;;;;3.47;1.75;;;;;;;22.79;43.11;96629.94;5004043;28;20200;-68
2022/05/22 09:04:51;;;;;;;3.78;1.65;;;;;;;23.14;43.44;96630.06;5015115;28;20637;-68
2022/05/22 09:07:19;;;;;;;1.50;1.38;;;;;;;22.60;45.00;96629.38;5015273;28;20208;-68
2022/05/22 09:09:53;;;;;;;1.50;1.40;;;;;;;21.96;45.23;96628.03;5014984;28;20184;-68
2022/05/22 09:12:36;;;;;;;1.40;1.23;;;;;;;21.58;45.22;96614.19;4996885;28;20200;-68
2022/05/22 09:15:16;;;;;;;1.88;1.65;;;;;;;21.79;44.92;96620.63;5011600;28;20209;-67
2022/05/22 09:18:19;;;;;;;1.40;1.40;;;;;;;21.28;44.93;96615.66;5014857;28;20218;-68
2022/05/22 09:21:11;;;;;;;1.33;1.20;;;;;;;21.27;46.06;96615.94;4989511;28;20211;-68
2022/05/22 09:23:58;;;;;;;1.85;1.30;;;;;;;22.17;44.56;96615.78;4996235;28;20176;-67
2022/05/22 09:26:43;;;;;;;1.85;1.13;;;;;;;22.10;44.55;96618.09;5009130;28;20705;-68
2022/05/22 09:29:14;;;;;;;3.63;1.27;;;;;;;21.63;45.02;96613.28;5014708;28;20334;-68
2022/05/22 09:32:05;;;;;;;3.47;1.50;;;;;;;22.18;45.72;96612.00;5014845;28;20279;-67
2022/05/22 09:35:03;;;;;;;1.38;1.27;;;;;;;21.90;46.05;96603.31;5015041;28;20241;-67
2022/05/22 09:38:03;;;;;;;2.20;1.30;;;;;;;22.28;44.89;96609.09;5010012;28;20230;-69
2022/05/22 09:40:57;;;;;;;1.98;1.20;;;;;;;21.78;44.36;96610.28;5014754;28;20180;-70
2022/05/22 09:43:22;;;;;;;3.00;1.45;;;;;;;22.13;44.32;96609.47;5014146;28;20180;-70
2022/05/22 09:46:19;;;;;;;1.40;1.20;;;;;;;22.36;45.02;96594.19;5014706;28;20183;-69
2022/05/22 09:48:56;;;;;;;2.63;1.23;;;;;;;20.85;46.63;96598.38;4996148;28;20620;-70
2022/05/22 09:51:49;;;;;;;1.65;1.50;;;;;;;20.92;46.34;96593.44;5014482;28;20634;-69
2022/05/22 09:54:34;;;;;;;1.30;1.20;;;;;;;20.70;46.94;96594.94;5014071;28;20200;-70
2022/05/22 09:57:14;;;;;;;2.13;1.40;;;;;;;20.94;47.01;96588.59;5014174;28;20194;-69
2022/05/22 10:00:08;;;;;;;1.52;1.42;;;;;;;20.74;47.29;96590.56;5013557;28;20179;-67
2022/05/22 10:02:55;;;;;;;1.88;1.23;;;;;;;21.46;46.50;96587.25;4986208;28;20252;-67
2022/05/22 10:05:45;;;;;;;1.73;1.50;;;;;;;21.68;46.06;96581.19;5013811;28;20199;-66
2022/05/22 10:08:31;;;;;;;2.58;1.70;;;;;;;21.52;45.96;96588.72;5013812;28;20218;-70
2022/05/22 10:11:05;;;;;;;2.50;1.30;;;;;;;21.33;46.01;96591.56;5013667;28;20525;-69
2022/05/22 10:13:33;;;;;;;3.00;1.60;;;;;;;20.97;47.08;96582.69;5004005;28;20202;-69
2022/05/22 10:16:20;;;;;;;1.65;1.30;;;;;;;21.23;47.10;96590.97;5002321;28;20205;-69
2022/05/22 10:19:02;;;;;;;2.90;1.60;;;;;;;21.34;46.39;96584.34;5013041;28;20286;-70
2022/05/22 10:21:33;;;;;;;4.20;1.67;;;;;;;21.43;45.99;96567.31;5013257;28;20276;-69
2022/05/22 10:24:08;;;;;;;1.58;1.25;;;;;;;21.50;47.08;96573.03;5012646;28;20251;-69
2022/05/22 10:26:38;;;;;;;2.22;1.50;;;;;;;21.57;46.52;96569.94;5007996;28;20675;-70
2022/05/22 10:29:17;;;;;;;2.83;1.40;;;;;;;21.74;45.63;96575.41;4996539;28;20259;-72
2022/05/22 10:31:48;;;;;;;1.23;1.17;;;;;;;22.24;44.85;96580.63;4992516;28;20176;-70
2022/05/22 10:34:34;;;;;;;2.35;1.38;;;;;;;21.98;45.52;96561.78;4993485;28;20192;-70
2022/05/22 10:37:10;;;;;;;2.53;1.40;;;;;;;22.32;45.17;96558.53;5011466;28;20278;-70
2022/05/22 10:39:35;;;;;;;2.20;1.60;;;;;;;21.82;45.87;96556.00;5013098;28;20557;-69
2022/05/22 10:44:57;;;;;;;2.05;1.55;;;;;;;21.82;45.90;96549.88;5007752;28;20615;-70
2022/05/22 10:47:33;;;;;;;2.03;1.60;;;;;;;22.04;45.54;96541.88;5011726;28;20217;-71
2022/05/22 10:50:00;;;;;;;1.50;1.40;;;;;;;22.29;44.90;96540.47;5013029;28;20191;-71
2022/05/22 10:52:34;;;;;;;1.60;1.50;;;;;;;22.05;45.36;96540.00;4995595;28;20583;-70
2022/05/22 10:55:00;;;;;;;2.70;1.65;;;;;;;21.97;45.25;96533.53;5012138;28;20229;-71
2022/05/22 10:57:31;;;;;;;2.45;1.58;;;;;;;21.73;45.71;96527.69;5012263;28;20187;-71
2022/05/22 10:59:58;;;;;;;1.45;1.27;;;;;;;21.49;45.76;96523.44;5011899;28;20175;-71
2022/05/22 11:02:30;;;;;;;1.60;1.50;;;;;;;21.54;45.61;96518.00;5005707;28;20566;-68
2022/05/22 11:04:57;;;;;;;2.28;1.42;;;;;;;21.42;45.98;96511.63;4996741;28;20234;-67
2022/05/22 11:07:51;;;;;;;1.58;1.48;;;;;;;21.52;45.75;96516.72;5003513;28;20195;-68
2022/05/22 11:10:27;;;;;;;1.80;1.58;;;;;;;21.63;44.94;96510.03;5009890;28;20284;-67
2022/05/22 11:13:08;;;;;;;2.30;1.83;;;;;;;21.54;44.87;96506.53;5008056;28;20206;-67
2022/05/22 11:15:37;;;;;;;1.65;1.55;;;;;;;21.68;44.60;96506.47;5011115;28;20206;-68
2022/05/22 11:18:11;;;;;;;1.83;1.58;;;;;;;22.31;43.79;96512.34;5012390;28;20590;-68
2022/05/22 11:21:00;;;;;;;3.65;1.92;;;;;;;21.93;43.01;96513.84;4986974;28;20187;-68
2022/05/22 11:23:53;;;;;;;1.70;1.55;;;;;;;21.99;43.81;96504.66;5012622;28;20237;-68
2022/05/22 11:26:37;;;;;;;2.25;1.60;;;;;;;22.20;43.10;96508.34;5009568;28;20643;-68
2022/05/22 11:29:02;;;;;;;2.75;1.50;;;;;;;21.70;44.22;96505.06;5012572;28;20190;-68
2022/05/22 11:31:56;;;;;;;1.65;1.55;;;;;;;22.22;43.35;96495.50;5011978;28;20502;-68
2022/05/22 11:34:46;;;;;;;2.28;1.70;;;;;;;22.53;42.60;96503.47;5011784;28;20317;-68
2022/05/22 11:37:22;;;;;;;2.85;1.70;;;;;;;22.57;42.50;96500.97;5012142;28;20183;-68
2022/05/22 11:40:00;;;;;;;4.40;1.65;;;;;;;22.66;41.81;96496.44;5012167;28;20260;-68
2022/05/22 11:42:34;;;;;;;3.08;1.55;;;;;;;22.87;41.94;96488.63;5011656;28;20179;-68
2022/05/22 11:45:16;;;;;;;1.40;1.30;;;;;;;23.37;41.28;96481.75;4995786;28;20183;-68
2022/05/22 11:48:00;;;;;;;1.58;1.48;;;;;;;23.03;41.14;96489.75;4999732;28;20744;-68
2022/05/22 11:51:03;;;;;;;1.67;1.50;;;;;;;22.58;40.96;96489.97;5012641;28;20183;-69
2022/05/22 11:54:03;;;;;;;2.00;1.85;;;;;;;22.64;40.96;96490.59;5012157;28;20175;-69
2022/05/22 11:56:34;;;;;;;1.77;1.60;;;;;;;22.79;40.84;96474.94;5011511;28;20266;-69
2022/05/22 11:59:37;;;;;;;1.60;1.50;;;;;;;22.50;42.39;96474.72;5011869;28;20643;-68
2022/05/22 12:02:40;;;;;;;1.20;1.20;;;;;;;22.96;42.29;96462.72;5001846;28;20186;-69
2022/05/22 12:05:14;;;;;;;2.65;1.67;;;;;;;22.97;41.29;96456.25;5011921;28;20269;-69
2022/05/22 12:07:48;;;;;;;6.65;2.42;;;;;;;22.79;41.48;96458.91;5012123;28;20266;-69
2022/05/22 12:10:31;;;;;;;5.03;1.67;;;;;;;22.38;42.58;96463.81;5012290;28;20263;-69